sensor_id;sensor_type;location;lat;lon;timestamp;temperature;humidity
34768;DHT22;21755;43.608;1.236;2023-05-10T00:01:31;12.80;99.90
34768;DHT22;21755;43.608;1.236;2023-05-10T00:03:56;12.80;99.90
34768;DHT22;21755;43.608;1.236;2023-05-10T00:06:22;12.80;99.90
34768;DHT22;21755;43.608;1.236;2023-05-10T00:08:48;12.80;99.90
34768;DHT22;21755;43.608;1.236;2023-05-10T00:11:14;12.80;99.90
34768;DHT22;21755;43.608;1.236;2023-05-10T00:13:40;12.70;99.90
34768;DHT22;21755;43.608;1.236;2023-05-10T00:16:06;12.70;99.90
34768;DHT22;21755;43.608;1.236;2023-05-10T00:18:32;12.70;99.90
34768;DHT22;21755;43.608;1.236;2023-05-10T00:20:58;12.70;99.90
34768;DHT22;21755;43.608;1.236;2023-05-10T00:23:24;12.70;99.90
34768;DHT22;21755;43.608;1.236;2023-05-10T00:25:50;12.70;99.90
34768;DHT22;21755;43.608;1.236;2023-05-10T00:28:15;12.80;99.90
34768;DHT22;21755;43.608;1.236;2023-05-10T00:30:41;12.80;99.90
34768;DHT22;21755;43.608;1.236;2023-05-10T00:33:07;12.80;99.90
34768;DHT22;21755;43.608;1.236;2023-05-10T00:35:33;12.80;99.90
34768;DHT22;21755;43.608;1.236;2023-05-10T00:37:59;12.80;99.90
34768;DHT22;21755;43.608;1.236;2023-05-10T00:40:25;12.80;99.90
34768;DHT22;21755;43.608;1.236;2023-05-10T00:42:51;12.80;99.90
34768;DHT22;21755;43.608;1.236;2023-05-10T00:45:17;12.80;99.90
34768;DHT22;21755;43.608;1.236;2023-05-10T00:47:45;12.80;99.90
34768;DHT22;21755;43.608;1.236;2023-05-10T00:50:11;12.80;99.90
34768;DHT22;21755;43.608;1.236;2023-05-10T00:52:37;12.80;99.90
34768;DHT22;21755;43.608;1.236;2023-05-10T00:55:03;12.80;99.90
34768;DHT22;21755;43.608;1.236;2023-05-10T00:57:30;12.80;99.90
34768;DHT22;21755;43.608;1.236;2023-05-10T00:59:57;12.80;99.90
34768;DHT22;21755;43.608;1.236;2023-05-10T01:02:23;12.80;99.90
34768;DHT22;21755;43.608;1.236;2023-05-10T01:04:49;12.80;99.90
34768;DHT22;21755;43.608;1.236;2023-05-10T01:07:15;12.80;99.90
34768;DHT22;21755;43.608;1.236;2023-05-10T01:09:42;12.80;99.90
34768;DHT22;21755;43.608;1.236;2023-05-10T01:12:08;12.80;99.90
34768;DHT22;21755;43.608;1.236;2023-05-10T01:14:34;12.80;99.90
34768;DHT22;21755;43.608;1.236;2023-05-10T01:17:01;12.70;99.90
34768;DHT22;21755;43.608;1.236;2023-05-10T01:19:29;12.70;99.90
34768;DHT22;21755;43.608;1.236;2023-05-10T01:22:11;12.70;99.90
34768;DHT22;21755;43.608;1.236;2023-05-10T01:35:26;12.50;99.90
34768;DHT22;21755;43.608;1.236;2023-05-10T01:43:28;12.50;99.90
34768;DHT22;21755;43.608;1.236;2023-05-10T01:46:04;12.40;99.90
34768;DHT22;21755;43.608;1.236;2023-05-10T01:48:42;12.40;99.90
34768;DHT22;21755;43.608;1.236;2023-05-10T01:51:16;12.40;99.90
34768;DHT22;21755;43.608;1.236;2023-05-10T01:53:45;12.40;99.90
34768;DHT22;21755;43.608;1.236;2023-05-10T01:56:12;12.40;99.90
34768;DHT22;21755;43.608;1.236;2023-05-10T01:58:40;12.40;99.90
34768;DHT22;21755;43.608;1.236;2023-05-10T02:01:10;12.40;99.90
34768;DHT22;21755;43.608;1.236;2023-05-10T02:03:38;12.40;99.90
34768;DHT22;21755;43.608;1.236;2023-05-10T02:06:05;12.30;99.90
34768;DHT22;21755;43.608;1.236;2023-05-10T02:08:32;12.40;99.90
34768;DHT22;21755;43.608;1.236;2023-05-10T02:11:00;12.40;99.90
34768;DHT22;21755;43.608;1.236;2023-05-10T02:13:27;12.30;99.90
34768;DHT22;21755;43.608;1.236;2023-05-10T02:15:53;12.30;99.90
34768;DHT22;21755;43.608;1.236;2023-05-10T02:18:22;12.40;99.90
34768;DHT22;21755;43.608;1.236;2023-05-10T02:20:50;12.30;99.90
34768;DHT22;21755;43.608;1.236;2023-05-10T02:23:17;12.30;99.90
34768;DHT22;21755;43.608;1.236;2023-05-10T02:25:45;12.30;99.90
34768;DHT22;21755;43.608;1.236;2023-05-10T02:28:12;12.30;99.90
34768;DHT22;21755;43.608;1.236;2023-05-10T02:30:39;12.30;99.90
34768;DHT22;21755;43.608;1.236;2023-05-10T02:33:05;12.30;99.90
34768;DHT22;21755;43.608;1.236;2023-05-10T02:35:32;12.30;99.90
34768;DHT22;21755;43.608;1.236;2023-05-10T02:37:59;12.30;99.90
34768;DHT22;21755;43.608;1.236;2023-05-10T02:40:26;12.40;99.90
34768;DHT22;21755;43.608;1.236;2023-05-10T02:42:55;12.40;99.90
34768;DHT22;21755;43.608;1.236;2023-05-10T02:45:24;12.40;99.90
34768;DHT22;21755;43.608;1.236;2023-05-10T02:47:52;12.40;99.90
34768;DHT22;21755;43.608;1.236;2023-05-10T02:50:18;12.30;99.90
34768;DHT22;21755;43.608;1.236;2023-05-10T02:52:51;12.30;99.90
34768;DHT22;21755;43.608;1.236;2023-05-10T02:55:25;12.30;99.90
34768;DHT22;21755;43.608;1.236;2023-05-10T02:57:57;12.40;99.90
34768;DHT22;21755;43.608;1.236;2023-05-10T03:00:24;12.40;99.90
34768;DHT22;21755;43.608;1.236;2023-05-10T03:02:50;12.20;99.90
34768;DHT22;21755;43.608;1.236;2023-05-10T03:05:16;12.00;99.90
34768;DHT22;21755;43.608;1.236;2023-05-10T03:07:42;11.80;99.90
34768;DHT22;21755;43.608;1.236;2023-05-10T03:10:09;11.80;99.90
34768;DHT22;21755;43.608;1.236;2023-05-10T03:18:23;11.80;99.90
34768;DHT22;21755;43.608;1.236;2023-05-10T03:20:59;11.80;99.90
34768;DHT22;21755;43.608;1.236;2023-05-10T03:23:43;11.90;99.90
34768;DHT22;21755;43.608;1.236;2023-05-10T03:26:20;11.80;99.90
34768;DHT22;21755;43.608;1.236;2023-05-10T03:28:50;11.80;99.90
34768;DHT22;21755;43.608;1.236;2023-05-10T03:31:17;11.80;99.90
34768;DHT22;21755;43.608;1.236;2023-05-10T03:33:50;11.80;99.90
34768;DHT22;21755;43.608;1.236;2023-05-10T03:36:16;11.80;99.90
34768;DHT22;21755;43.608;1.236;2023-05-10T03:38:42;11.80;99.90
34768;DHT22;21755;43.608;1.236;2023-05-10T03:41:08;11.70;99.90
34768;DHT22;21755;43.608;1.236;2023-05-10T03:43:34;11.80;99.90
34768;DHT22;21755;43.608;1.236;2023-05-10T03:46:04;11.80;99.90
34768;DHT22;21755;43.608;1.236;2023-05-10T03:48:30;11.80;99.90
34768;DHT22;21755;43.608;1.236;2023-05-10T03:50:57;11.70;99.90
34768;DHT22;21755;43.608;1.236;2023-05-10T03:53:23;11.70;99.90
34768;DHT22;21755;43.608;1.236;2023-05-10T03:55:49;11.80;99.90
34768;DHT22;21755;43.608;1.236;2023-05-10T03:58:14;11.80;99.90
34768;DHT22;21755;43.608;1.236;2023-05-10T04:00:40;11.80;99.90
34768;DHT22;21755;43.608;1.236;2023-05-10T04:03:11;11.80;99.90
34768;DHT22;21755;43.608;1.236;2023-05-10T04:05:37;11.80;99.90
34768;DHT22;21755;43.608;1.236;2023-05-10T04:08:04;11.80;99.90
34768;DHT22;21755;43.608;1.236;2023-05-10T04:10:30;11.80;99.90
34768;DHT22;21755;43.608;1.236;2023-05-10T04:12:56;11.80;99.90
34768;DHT22;21755;43.608;1.236;2023-05-10T04:15:22;11.90;99.90
34768;DHT22;21755;43.608;1.236;2023-05-10T04:17:48;11.90;99.90
34768;DHT22;21755;43.608;1.236;2023-05-10T04:20:14;11.80;99.90
34768;DHT22;21755;43.608;1.236;2023-05-10T04:22:40;11.80;99.90
34768;DHT22;21755;43.608;1.236;2023-05-10T04:25:06;11.90;99.90
34768;DHT22;21755;43.608;1.236;2023-05-10T04:27:33;11.80;99.90
34768;DHT22;21755;43.608;1.236;2023-05-10T04:29:59;11.80;99.90
34768;DHT22;21755;43.608;1.236;2023-05-10T04:32:25;11.80;99.90
34768;DHT22;21755;43.608;1.236;2023-05-10T04:34:50;11.70;99.90
34768;DHT22;21755;43.608;1.236;2023-05-10T04:37:17;11.70;99.90
34768;DHT22;21755;43.608;1.236;2023-05-10T04:39:43;11.70;99.90
34768;DHT22;21755;43.608;1.236;2023-05-10T04:42:09;11.50;99.90
34768;DHT22;21755;43.608;1.236;2023-05-10T04:44:35;11.50;99.90
34768;DHT22;21755;43.608;1.236;2023-05-10T04:47:01;11.50;99.90
34768;DHT22;21755;43.608;1.236;2023-05-10T04:49:28;11.50;99.90
34768;DHT22;21755;43.608;1.236;2023-05-10T04:51:55;11.50;99.90
34768;DHT22;21755;43.608;1.236;2023-05-10T04:54:21;11.50;99.90
34768;DHT22;21755;43.608;1.236;2023-05-10T04:56:47;11.50;99.90
34768;DHT22;21755;43.608;1.236;2023-05-10T04:59:13;11.50;99.90
34768;DHT22;21755;43.608;1.236;2023-05-10T05:01:39;11.50;99.90
34768;DHT22;21755;43.608;1.236;2023-05-10T05:04:05;11.60;99.90
34768;DHT22;21755;43.608;1.236;2023-05-10T05:06:32;11.50;99.90
34768;DHT22;21755;43.608;1.236;2023-05-10T05:08:58;11.60;99.90
34768;DHT22;21755;43.608;1.236;2023-05-10T05:11:24;11.60;99.90
34768;DHT22;21755;43.608;1.236;2023-05-10T05:13:51;11.50;99.90
34768;DHT22;21755;43.608;1.236;2023-05-10T05:16:17;11.50;99.90
34768;DHT22;21755;43.608;1.236;2023-05-10T05:18:42;11.50;99.90
34768;DHT22;21755;43.608;1.236;2023-05-10T05:21:18;11.60;99.90
34768;DHT22;21755;43.608;1.236;2023-05-10T05:23:45;11.60;99.90
34768;DHT22;21755;43.608;1.236;2023-05-10T05:26:11;11.50;99.90
34768;DHT22;21755;43.608;1.236;2023-05-10T05:28:37;11.50;99.90
34768;DHT22;21755;43.608;1.236;2023-05-10T05:31:04;11.50;99.90
34768;DHT22;21755;43.608;1.236;2023-05-10T05:33:31;11.50;99.90
34768;DHT22;21755;43.608;1.236;2023-05-10T05:35:57;11.60;99.90
34768;DHT22;21755;43.608;1.236;2023-05-10T05:38:23;11.60;99.90
34768;DHT22;21755;43.608;1.236;2023-05-10T05:40:49;11.70;99.90
34768;DHT22;21755;43.608;1.236;2023-05-10T05:43:15;11.70;99.90
34768;DHT22;21755;43.608;1.236;2023-05-10T05:45:41;11.70;99.90
34768;DHT22;21755;43.608;1.236;2023-05-10T05:48:06;11.70;99.90
34768;DHT22;21755;43.608;1.236;2023-05-10T05:50:32;11.80;99.90
34768;DHT22;21755;43.608;1.236;2023-05-10T05:52:58;11.80;99.90
34768;DHT22;21755;43.608;1.236;2023-05-10T05:55:24;11.90;99.90
34768;DHT22;21755;43.608;1.236;2023-05-10T05:57:51;11.80;99.90
34768;DHT22;21755;43.608;1.236;2023-05-10T06:00:17;11.80;99.90
34768;DHT22;21755;43.608;1.236;2023-05-10T06:02:43;11.80;99.90
34768;DHT22;21755;43.608;1.236;2023-05-10T06:05:09;11.80;99.90
34768;DHT22;21755;43.608;1.236;2023-05-10T06:07:35;11.80;99.90
34768;DHT22;21755;43.608;1.236;2023-05-10T06:10:01;11.80;99.90
34768;DHT22;21755;43.608;1.236;2023-05-10T06:12:28;11.80;99.90
34768;DHT22;21755;43.608;1.236;2023-05-10T06:14:54;11.90;99.90
34768;DHT22;21755;43.608;1.236;2023-05-10T06:17:20;12.10;99.90
34768;DHT22;21755;43.608;1.236;2023-05-10T06:19:47;12.10;99.90
34768;DHT22;21755;43.608;1.236;2023-05-10T06:22:12;12.20;99.90
34768;DHT22;21755;43.608;1.236;2023-05-10T06:24:38;12.30;99.90
34768;DHT22;21755;43.608;1.236;2023-05-10T06:27:05;12.40;99.90
34768;DHT22;21755;43.608;1.236;2023-05-10T06:29:31;12.60;99.90
34768;DHT22;21755;43.608;1.236;2023-05-10T06:31:57;12.70;99.90
34768;DHT22;21755;43.608;1.236;2023-05-10T06:34:23;12.70;99.90
34768;DHT22;21755;43.608;1.236;2023-05-10T06:36:49;12.90;99.90
34768;DHT22;21755;43.608;1.236;2023-05-10T06:39:15;13.00;99.90
34768;DHT22;21755;43.608;1.236;2023-05-10T06:41:41;13.10;99.90
34768;DHT22;21755;43.608;1.236;2023-05-10T06:44:07;13.20;99.90
34768;DHT22;21755;43.608;1.236;2023-05-10T06:46:34;13.20;99.90
34768;DHT22;21755;43.608;1.236;2023-05-10T06:48:59;13.30;99.90
34768;DHT22;21755;43.608;1.236;2023-05-10T06:51:25;13.40;99.90
34768;DHT22;21755;43.608;1.236;2023-05-10T06:53:51;13.40;99.90
34768;DHT22;21755;43.608;1.236;2023-05-10T06:56:17;13.30;99.90
34768;DHT22;21755;43.608;1.236;2023-05-10T06:58:43;13.50;99.90
34768;DHT22;21755;43.608;1.236;2023-05-10T07:01:09;13.60;99.90
34768;DHT22;21755;43.608;1.236;2023-05-10T07:03:34;13.90;99.90
34768;DHT22;21755;43.608;1.236;2023-05-10T07:06:04;13.90;99.90
34768;DHT22;21755;43.608;1.236;2023-05-10T07:08:34;13.80;99.90
34768;DHT22;21755;43.608;1.236;2023-05-10T07:11:05;13.70;99.90
34768;DHT22;21755;43.608;1.236;2023-05-10T07:13:32;13.60;99.90
34768;DHT22;21755;43.608;1.236;2023-05-10T07:15:59;13.50;99.90
34768;DHT22;21755;43.608;1.236;2023-05-10T07:18:25;13.50;99.90
34768;DHT22;21755;43.608;1.236;2023-05-10T07:20:51;13.80;99.90
34768;DHT22;21755;43.608;1.236;2023-05-10T07:23:17;13.70;99.90
34768;DHT22;21755;43.608;1.236;2023-05-10T07:25:47;13.70;99.90
34768;DHT22;21755;43.608;1.236;2023-05-10T07:28:14;13.60;99.90
34768;DHT22;21755;43.608;1.236;2023-05-10T07:30:40;13.70;99.90
34768;DHT22;21755;43.608;1.236;2023-05-10T07:33:07;13.70;99.90
34768;DHT22;21755;43.608;1.236;2023-05-10T07:35:34;14.20;99.90
34768;DHT22;21755;43.608;1.236;2023-05-10T07:38:00;14.10;99.90
34768;DHT22;21755;43.608;1.236;2023-05-10T07:40:25;14.10;99.90
34768;DHT22;21755;43.608;1.236;2023-05-10T07:42:51;14.00;99.90
34768;DHT22;21755;43.608;1.236;2023-05-10T07:45:18;14.00;99.90
34768;DHT22;21755;43.608;1.236;2023-05-10T07:47:43;14.00;99.90
34768;DHT22;21755;43.608;1.236;2023-05-10T07:50:09;14.00;99.90
34768;DHT22;21755;43.608;1.236;2023-05-10T07:52:35;14.00;99.90
34768;DHT22;21755;43.608;1.236;2023-05-10T07:55:01;14.00;99.90
34768;DHT22;21755;43.608;1.236;2023-05-10T07:57:27;14.20;99.90
34768;DHT22;21755;43.608;1.236;2023-05-10T07:59:53;14.60;99.90
34768;DHT22;21755;43.608;1.236;2023-05-10T08:02:19;14.90;99.90
34768;DHT22;21755;43.608;1.236;2023-05-10T08:04:45;15.10;99.90
34768;DHT22;21755;43.608;1.236;2023-05-10T08:07:11;15.30;99.90
34768;DHT22;21755;43.608;1.236;2023-05-10T08:09:37;15.20;99.90
34768;DHT22;21755;43.608;1.236;2023-05-10T08:12:03;15.20;99.90
34768;DHT22;21755;43.608;1.236;2023-05-10T08:14:29;15.50;99.90
34768;DHT22;21755;43.608;1.236;2023-05-10T08:16:55;15.70;99.90
34768;DHT22;21755;43.608;1.236;2023-05-10T08:19:21;15.70;99.90
34768;DHT22;21755;43.608;1.236;2023-05-10T08:21:48;15.90;99.90
34768;DHT22;21755;43.608;1.236;2023-05-10T08:24:14;15.40;99.90
34768;DHT22;21755;43.608;1.236;2023-05-10T08:26:40;15.40;99.90
34768;DHT22;21755;43.608;1.236;2023-05-10T08:29:06;15.60;99.90
34768;DHT22;21755;43.608;1.236;2023-05-10T08:31:32;16.10;99.90
34768;DHT22;21755;43.608;1.236;2023-05-10T08:33:58;16.00;99.90
34768;DHT22;21755;43.608;1.236;2023-05-10T08:36:24;15.60;99.90
34768;DHT22;21755;43.608;1.236;2023-05-10T08:38:50;15.30;99.90
34768;DHT22;21755;43.608;1.236;2023-05-10T08:41:19;15.70;99.90
34768;DHT22;21755;43.608;1.236;2023-05-10T08:43:46;15.70;99.90
34768;DHT22;21755;43.608;1.236;2023-05-10T08:46:18;15.60;99.90
34768;DHT22;21755;43.608;1.236;2023-05-10T08:48:45;15.90;99.90
34768;DHT22;21755;43.608;1.236;2023-05-10T08:51:17;15.90;99.90
34768;DHT22;21755;43.608;1.236;2023-05-10T08:53:44;16.20;99.90
34768;DHT22;21755;43.608;1.236;2023-05-10T08:56:10;16.40;99.90
34768;DHT22;21755;43.608;1.236;2023-05-10T08:58:37;16.50;99.90
34768;DHT22;21755;43.608;1.236;2023-05-10T09:01:04;16.70;99.90
34768;DHT22;21755;43.608;1.236;2023-05-10T09:03:31;16.80;99.90
34768;DHT22;21755;43.608;1.236;2023-05-10T09:05:58;16.30;99.90
34768;DHT22;21755;43.608;1.236;2023-05-10T09:08:24;16.20;99.90
34768;DHT22;21755;43.608;1.236;2023-05-10T09:10:54;16.50;99.90
34768;DHT22;21755;43.608;1.236;2023-05-10T09:13:22;16.80;99.90
34768;DHT22;21755;43.608;1.236;2023-05-10T09:15:48;16.70;99.90
34768;DHT22;21755;43.608;1.236;2023-05-10T09:18:14;16.60;99.90
34768;DHT22;21755;43.608;1.236;2023-05-10T09:20:40;16.40;99.90
34768;DHT22;21755;43.608;1.236;2023-05-10T09:23:06;16.20;99.90
34768;DHT22;21755;43.608;1.236;2023-05-10T09:25:32;16.10;99.90
34768;DHT22;21755;43.608;1.236;2023-05-10T09:27:59;16.10;99.90
34768;DHT22;21755;43.608;1.236;2023-05-10T09:30:27;16.10;99.90
34768;DHT22;21755;43.608;1.236;2023-05-10T09:32:54;16.50;99.90
34768;DHT22;21755;43.608;1.236;2023-05-10T09:35:22;16.80;99.90
34768;DHT22;21755;43.608;1.236;2023-05-10T09:37:51;17.20;99.90
34768;DHT22;21755;43.608;1.236;2023-05-10T09:40:25;17.20;99.90
34768;DHT22;21755;43.608;1.236;2023-05-10T09:45:19;16.70;99.90
34768;DHT22;21755;43.608;1.236;2023-05-10T09:47:45;16.20;99.90
34768;DHT22;21755;43.608;1.236;2023-05-10T09:50:11;15.80;99.90
34768;DHT22;21755;43.608;1.236;2023-05-10T09:52:47;15.70;99.90
34768;DHT22;21755;43.608;1.236;2023-05-10T09:55:14;15.60;99.90
34768;DHT22;21755;43.608;1.236;2023-05-10T09:57:40;16.20;99.90
34768;DHT22;21755;43.608;1.236;2023-05-10T10:00:07;16.80;99.90
34768;DHT22;21755;43.608;1.236;2023-05-10T10:02:33;17.00;99.90
34768;DHT22;21755;43.608;1.236;2023-05-10T10:05:01;17.00;99.90
34768;DHT22;21755;43.608;1.236;2023-05-10T10:07:28;16.80;99.90
34768;DHT22;21755;43.608;1.236;2023-05-10T10:09:55;16.80;99.90
34768;DHT22;21755;43.608;1.236;2023-05-10T10:12:21;16.90;99.90
34768;DHT22;21755;43.608;1.236;2023-05-10T10:14:47;17.10;99.90
34768;DHT22;21755;43.608;1.236;2023-05-10T10:17:15;17.30;99.90
34768;DHT22;21755;43.608;1.236;2023-05-10T10:19:41;17.40;99.90
34768;DHT22;21755;43.608;1.236;2023-05-10T10:22:07;17.60;99.90
34768;DHT22;21755;43.608;1.236;2023-05-10T10:24:33;17.60;99.90
34768;DHT22;21755;43.608;1.236;2023-05-10T10:27:40;18.00;99.90
34768;DHT22;21755;43.608;1.236;2023-05-10T10:35:37;17.80;99.90
34768;DHT22;21755;43.608;1.236;2023-05-10T10:38:03;17.80;99.90
34768;DHT22;21755;43.608;1.236;2023-05-10T10:40:30;17.70;99.90
34768;DHT22;21755;43.608;1.236;2023-05-10T10:42:57;17.60;99.90
34768;DHT22;21755;43.608;1.236;2023-05-10T10:45:24;17.50;99.90
34768;DHT22;21755;43.608;1.236;2023-05-10T10:48:20;17.50;99.90
34768;DHT22;21755;43.608;1.236;2023-05-10T10:50:46;17.60;99.90
34768;DHT22;21755;43.608;1.236;2023-05-10T10:53:12;17.90;99.90
34768;DHT22;21755;43.608;1.236;2023-05-10T10:55:48;17.70;99.90
34768;DHT22;21755;43.608;1.236;2023-05-10T10:58:30;17.30;99.90
34768;DHT22;21755;43.608;1.236;2023-05-10T11:01:17;17.00;99.90
34768;DHT22;21755;43.608;1.236;2023-05-10T11:06:35;17.10;99.90
34768;DHT22;21755;43.608;1.236;2023-05-10T11:09:09;17.10;99.90
34768;DHT22;21755;43.608;1.236;2023-05-10T11:11:36;16.30;99.90
34768;DHT22;21755;43.608;1.236;2023-05-10T11:14:06;15.60;99.90
34768;DHT22;21755;43.608;1.236;2023-05-10T11:16:44;15.40;99.90
34768;DHT22;21755;43.608;1.236;2023-05-10T11:19:12;15.40;99.90
34768;DHT22;21755;43.608;1.236;2023-05-10T11:21:46;15.50;99.90
34768;DHT22;21755;43.608;1.236;2023-05-10T11:24:15;15.70;99.90
34768;DHT22;21755;43.608;1.236;2023-05-10T11:26:42;16.00;99.90
34768;DHT22;21755;43.608;1.236;2023-05-10T11:29:08;16.60;99.90
34768;DHT22;21755;43.608;1.236;2023-05-10T11:31:34;16.80;99.90
34768;DHT22;21755;43.608;1.236;2023-05-10T11:34:01;17.00;99.90
34768;DHT22;21755;43.608;1.236;2023-05-10T11:36:33;17.00;99.90
34768;DHT22;21755;43.608;1.236;2023-05-10T11:38:59;16.90;99.90
34768;DHT22;21755;43.608;1.236;2023-05-10T11:41:27;16.90;99.90
34768;DHT22;21755;43.608;1.236;2023-05-10T11:43:54;17.10;99.90
34768;DHT22;21755;43.608;1.236;2023-05-10T11:46:22;17.80;99.90
34768;DHT22;21755;43.608;1.236;2023-05-10T11:48:50;18.00;99.90
34768;DHT22;21755;43.608;1.236;2023-05-10T11:51:21;18.20;99.90
34768;DHT22;21755;43.608;1.236;2023-05-10T11:53:47;17.80;99.90
34768;DHT22;21755;43.608;1.236;2023-05-10T11:56:12;17.00;99.90
34768;DHT22;21755;43.608;1.236;2023-05-10T11:58:39;16.70;99.90
34768;DHT22;21755;43.608;1.236;2023-05-10T12:01:06;16.70;99.90
34768;DHT22;21755;43.608;1.236;2023-05-10T12:03:33;16.70;99.90
34768;DHT22;21755;43.608;1.236;2023-05-10T12:06:00;17.10;99.90
34768;DHT22;21755;43.608;1.236;2023-05-10T12:08:27;17.30;99.90
34768;DHT22;21755;43.608;1.236;2023-05-10T12:11:03;17.60;99.90
34768;DHT22;21755;43.608;1.236;2023-05-10T12:13:29;18.20;99.90
34768;DHT22;21755;43.608;1.236;2023-05-10T12:15:57;18.20;99.90
34768;DHT22;21755;43.608;1.236;2023-05-10T12:18:24;18.20;99.90
34768;DHT22;21755;43.608;1.236;2023-05-10T12:20:53;18.20;99.90
34768;DHT22;21755;43.608;1.236;2023-05-10T12:23:20;18.30;99.90
34768;DHT22;21755;43.608;1.236;2023-05-10T12:25:46;18.50;99.90
34768;DHT22;21755;43.608;1.236;2023-05-10T12:28:12;18.70;99.90
34768;DHT22;21755;43.608;1.236;2023-05-10T12:30:38;18.60;99.90
34768;DHT22;21755;43.608;1.236;2023-05-10T12:33:12;18.60;99.90
34768;DHT22;21755;43.608;1.236;2023-05-10T12:35:50;18.60;99.90
34768;DHT22;21755;43.608;1.236;2023-05-10T12:41:01;18.60;99.90
34768;DHT22;21755;43.608;1.236;2023-05-10T12:43:27;18.90;99.90
34768;DHT22;21755;43.608;1.236;2023-05-10T12:45:53;19.10;98.70
34768;DHT22;21755;43.608;1.236;2023-05-10T12:48:19;18.90;99.90
34768;DHT22;21755;43.608;1.236;2023-05-10T12:50:46;19.00;99.90
34768;DHT22;21755;43.608;1.236;2023-05-10T12:53:13;18.80;99.90
34768;DHT22;21755;43.608;1.236;2023-05-10T12:55:41;19.00;99.10
34768;DHT22;21755;43.608;1.236;2023-05-10T12:58:07;19.10;99.70
34768;DHT22;21755;43.608;1.236;2023-05-10T13:00:33;19.10;98.80
34768;DHT22;21755;43.608;1.236;2023-05-10T13:02:59;19.00;99.40
34768;DHT22;21755;43.608;1.236;2023-05-10T13:05:25;18.90;99.90
34768;DHT22;21755;43.608;1.236;2023-05-10T13:07:50;19.20;99.90
34768;DHT22;21755;43.608;1.236;2023-05-10T13:10:16;19.20;99.90
34768;DHT22;21755;43.608;1.236;2023-05-10T13:12:42;18.90;99.50
34768;DHT22;21755;43.608;1.236;2023-05-10T13:15:08;19.30;99.90
34768;DHT22;21755;43.608;1.236;2023-05-10T13:17:34;19.30;98.40
34768;DHT22;21755;43.608;1.236;2023-05-10T13:20:00;19.50;99.90
34768;DHT22;21755;43.608;1.236;2023-05-10T13:22:26;19.50;97.70
34768;DHT22;21755;43.608;1.236;2023-05-10T13:24:52;19.30;97.70
34768;DHT22;21755;43.608;1.236;2023-05-10T13:27:18;19.20;97.20
34768;DHT22;21755;43.608;1.236;2023-05-10T13:29:44;19.00;97.90
34768;DHT22;21755;43.608;1.236;2023-05-10T13:32:09;19.00;98.00
34768;DHT22;21755;43.608;1.236;2023-05-10T13:34:35;18.50;97.30
34768;DHT22;21755;43.608;1.236;2023-05-10T13:37:02;18.40;98.20
34768;DHT22;21755;43.608;1.236;2023-05-10T13:39:27;18.50;98.50
34768;DHT22;21755;43.608;1.236;2023-05-10T13:41:56;18.30;97.10
34768;DHT22;21755;43.608;1.236;2023-05-10T13:44:22;18.40;99.20
34768;DHT22;21755;43.608;1.236;2023-05-10T13:46:48;18.30;99.90
34768;DHT22;21755;43.608;1.236;2023-05-10T13:49:13;17.90;99.90
34768;DHT22;21755;43.608;1.236;2023-05-10T13:51:39;17.40;99.90
34768;DHT22;21755;43.608;1.236;2023-05-10T13:54:05;16.90;99.90
34768;DHT22;21755;43.608;1.236;2023-05-10T13:56:31;16.80;99.90
34768;DHT22;21755;43.608;1.236;2023-05-10T13:58:57;16.80;99.90
34768;DHT22;21755;43.608;1.236;2023-05-10T14:01:24;16.80;99.90
34768;DHT22;21755;43.608;1.236;2023-05-10T14:03:49;16.70;99.90
34768;DHT22;21755;43.608;1.236;2023-05-10T14:06:15;16.50;99.90
34768;DHT22;21755;43.608;1.236;2023-05-10T14:08:42;16.30;99.90
34768;DHT22;21755;43.608;1.236;2023-05-10T14:11:08;16.20;99.90
34768;DHT22;21755;43.608;1.236;2023-05-10T14:13:35;16.40;99.90
34768;DHT22;21755;43.608;1.236;2023-05-10T14:16:01;16.50;99.90
34768;DHT22;21755;43.608;1.236;2023-05-10T14:18:27;16.50;99.90
34768;DHT22;21755;43.608;1.236;2023-05-10T14:20:53;16.60;99.90
34768;DHT22;21755;43.608;1.236;2023-05-10T14:23:21;16.70;99.90
34768;DHT22;21755;43.608;1.236;2023-05-10T14:25:50;16.90;99.90
34768;DHT22;21755;43.608;1.236;2023-05-10T14:28:16;17.20;99.90
34768;DHT22;21755;43.608;1.236;2023-05-10T14:30:44;17.30;99.90
34768;DHT22;21755;43.608;1.236;2023-05-10T14:33:10;17.40;99.90
34768;DHT22;21755;43.608;1.236;2023-05-10T14:35:36;17.90;99.90
34768;DHT22;21755;43.608;1.236;2023-05-10T14:38:02;18.20;99.90
34768;DHT22;21755;43.608;1.236;2023-05-10T14:40:29;18.50;99.90
34768;DHT22;21755;43.608;1.236;2023-05-10T14:42:55;18.40;99.90
34768;DHT22;21755;43.608;1.236;2023-05-10T14:45:22;18.30;99.90
34768;DHT22;21755;43.608;1.236;2023-05-10T14:47:49;18.30;99.90
34768;DHT22;21755;43.608;1.236;2023-05-10T14:50:15;17.90;99.90
34768;DHT22;21755;43.608;1.236;2023-05-10T14:52:43;17.40;99.90
34768;DHT22;21755;43.608;1.236;2023-05-10T14:55:10;17.50;99.90
34768;DHT22;21755;43.608;1.236;2023-05-10T14:57:36;17.80;99.90
34768;DHT22;21755;43.608;1.236;2023-05-10T15:00:03;17.60;99.90
34768;DHT22;21755;43.608;1.236;2023-05-10T15:02:30;17.40;99.90
34768;DHT22;21755;43.608;1.236;2023-05-10T15:04:56;17.30;99.90
34768;DHT22;21755;43.608;1.236;2023-05-10T15:07:23;16.90;99.90
34768;DHT22;21755;43.608;1.236;2023-05-10T15:09:50;16.70;99.90
34768;DHT22;21755;43.608;1.236;2023-05-10T15:12:17;16.20;99.90
34768;DHT22;21755;43.608;1.236;2023-05-10T15:14:43;15.70;99.90
34768;DHT22;21755;43.608;1.236;2023-05-10T15:17:10;15.10;99.90
34768;DHT22;21755;43.608;1.236;2023-05-10T15:19:36;14.90;99.90
34768;DHT22;21755;43.608;1.236;2023-05-10T15:22:03;15.10;99.90
34768;DHT22;21755;43.608;1.236;2023-05-10T15:24:29;15.20;99.90
34768;DHT22;21755;43.608;1.236;2023-05-10T15:26:55;15.60;99.90
34768;DHT22;21755;43.608;1.236;2023-05-10T15:29:21;15.90;99.90
34768;DHT22;21755;43.608;1.236;2023-05-10T15:31:48;16.00;99.90
34768;DHT22;21755;43.608;1.236;2023-05-10T15:34:14;16.20;99.90
34768;DHT22;21755;43.608;1.236;2023-05-10T15:36:40;16.10;99.90
34768;DHT22;21755;43.608;1.236;2023-05-10T15:39:06;16.10;99.90
34768;DHT22;21755;43.608;1.236;2023-05-10T15:41:32;16.10;99.90
34768;DHT22;21755;43.608;1.236;2023-05-10T15:43:58;16.30;99.90
34768;DHT22;21755;43.608;1.236;2023-05-10T15:46:29;16.60;99.90
34768;DHT22;21755;43.608;1.236;2023-05-10T15:48:57;16.90;99.90
34768;DHT22;21755;43.608;1.236;2023-05-10T15:51:24;16.90;99.90
34768;DHT22;21755;43.608;1.236;2023-05-10T15:53:51;16.70;99.90
34768;DHT22;21755;43.608;1.236;2023-05-10T15:56:17;16.70;99.90
34768;DHT22;21755;43.608;1.236;2023-05-10T15:58:43;16.50;99.90
34768;DHT22;21755;43.608;1.236;2023-05-10T16:01:09;16.60;99.90
34768;DHT22;21755;43.608;1.236;2023-05-10T16:03:37;16.70;99.90
34768;DHT22;21755;43.608;1.236;2023-05-10T16:06:03;16.60;99.90